Time;durP1;ratioP1;P1;durP2;ratioP2;P2;SDS_P1;SDS_P2;PMS_P1;PMS_P2;Temp;Humidity;BMP_temperature;BMP_pressure;BME280_temperature;BME280_humidity;BME280_pressure;Samples;Min_cycle;Max_cycle;Signal;HPM_P1;HPM_P2
2022/12/21 00:00:16;;;;;;;18.83;9.90;;;;;;;1.73;64.03;100315.63;6011017;23;20161;-90
2022/12/21 00:02:42;;;;;;;19.60;9.03;;;;;;;1.72;64.01;100307.88;6011596;23;20150;-89
2022/12/21 00:05:08;;;;;;;23.10;8.37;;;;;;;1.69;63.87;100311.31;5986042;23;20276;-90
2022/12/21 00:07:34;;;;;;;18.00;8.10;;;;;;;1.72;63.97;100313.03;6010857;23;20174;-90
2022/12/21 00:10:00;;;;;;;14.47;6.77;;;;;;;1.65;63.57;100309.56;6010996;23;20159;-89
2022/12/21 00:12:25;;;;;;;21.67;8.20;;;;;;;1.64;63.93;100310.44;6010868;23;20151;-89
2022/12/21 00:14:51;;;;;;;22.10;8.30;;;;;;;1.67;63.60;100307.88;5986427;23;20163;-89
2022/12/21 00:17:36;;;;;;;20.40;8.63;;;;;;;1.62;63.77;100301.84;6011196;23;20150;-90
2022/12/21 00:20:02;;;;;;;30.37;9.17;;;;;;;1.65;63.54;100306.97;5986316;23;20193;-89
2022/12/21 00:22:27;;;;;;;18.20;8.33;;;;;;;1.61;63.54;100305.25;6010803;23;20174;-90
2022/12/21 00:24:53;;;;;;;15.90;8.20;;;;;;;1.58;63.48;100304.38;6011224;23;20154;-89
2022/12/21 00:27:18;;;;;;;19.27;8.27;;;;;;;1.55;64.15;100305.25;6010758;23;20182;-90
2022/12/21 00:29:43;;;;;;;18.30;6.93;;;;;;;1.46;64.05;100309.53;6010818;23;20467;-90
2022/12/21 00:32:09;;;;;;;15.50;7.13;;;;;;;1.46;63.74;100305.25;6010775;23;20486;-90
2022/12/21 00:34:34;;;;;;;29.13;8.97;;;;;;;1.53;63.46;100299.22;5986237;23;20174;-90
2022/12/21 00:37:01;;;;;;;23.17;8.53;;;;;;;1.49;63.63;100294.91;6010752;23;20149;-89
2022/12/21 00:39:26;;;;;;;20.43;8.07;;;;;;;1.50;63.87;100300.91;6010792;23;20154;-90
2022/12/21 00:41:51;;;;;;;20.33;8.60;;;;;;;1.41;63.37;100300.91;6011074;23;20405;-88
2022/12/21 00:44:17;;;;;;;13.10;6.67;;;;;;;1.35;63.67;100298.31;6011052;23;20241;-89
2022/12/21 00:46:44;;;;;;;12.90;6.77;;;;;;;1.31;64.22;100294.00;6010979;23;20189;-89
2022/12/21 00:49:10;;;;;;;15.97;6.27;;;;;;;1.24;64.02;100293.97;6010821;23;20165;-89
2022/12/21 00:51:36;;;;;;;15.57;6.83;;;;;;;1.19;63.96;100289.66;6011023;23;20206;-89
2022/12/21 00:54:02;;;;;;;28.63;9.57;;;;;;;1.23;64.16;100281.06;6010725;23;20579;-89
2022/12/21 00:56:28;;;;;;;20.70;8.63;;;;;;;1.19;63.89;100284.47;6010965;23;20172;-89
2022/12/21 00:58:54;;;;;;;21.70;8.10;;;;;;;1.21;64.58;100278.47;6010762;23;20835;-89
2022/12/21 01:01:25;;;;;;;17.30;7.50;;;;;;;1.17;64.81;100262.97;6010474;23;20594;-90
2022/12/21 01:03:51;;;;;;;23.30;7.93;;;;;;;1.21;64.89;100269.84;5986823;23;20478;-90
2022/12/21 01:06:20;;;;;;;19.27;8.03;;;;;;;1.13;64.64;100271.53;6009476;23;20270;-90
2022/12/21 01:08:45;;;;;;;14.70;6.27;;;;;;;1.06;64.93;100265.50;6010672;23;20159;-90
2022/12/21 01:11:13;;;;;;;20.23;6.23;;;;;;;1.07;64.93;100263.78;6010959;23;20282;-90
2022/12/21 01:13:40;;;;;;;18.50;9.17;;;;;;;1.06;64.88;100255.19;6009475;23;20166;-90
2022/12/21 01:16:16;;;;;;;16.07;7.03;;;;;;;1.07;64.74;100256.06;6011618;23;20607;-90
2022/12/21 01:18:43;;;;;;;13.97;7.47;;;;;;;1.11;64.78;100250.03;6012413;23;20751;-90
2022/12/21 01:21:20;;;;;;;17.37;6.87;;;;;;;1.17;64.69;100257.81;6011250;23;20406;-90
2022/12/21 01:23:47;;;;;;;14.53;6.37;;;;;;;1.14;64.45;100247.47;6012980;23;20430;-90
2022/12/21 01:26:13;;;;;;;13.70;6.73;;;;;;;1.05;64.31;100243.13;6012237;23;20426;-90
2022/12/21 01:28:39;;;;;;;16.23;7.90;;;;;;;1.10;64.56;100238.00;6012513;23;20531;-89
2022/12/21 01:31:04;;;;;;;20.97;8.07;;;;;;;1.19;64.54;100235.41;6012631;23;20154;-90
2022/12/21 01:33:30;;;;;;;18.57;6.53;;;;;;;1.17;64.50;100221.66;6012268;23;20669;-90
2022/12/21 01:35:55;;;;;;;21.13;9.03;;;;;;;1.18;64.41;100223.34;6012329;23;20515;-90
2022/12/21 01:38:21;;;;;;;15.53;8.63;;;;;;;1.19;64.22;100222.50;6012585;23;20642;-89
2022/12/21 01:40:46;;;;;;;24.80;8.47;;;;;;;1.19;64.65;100225.09;5987629;23;20610;-89
2022/12/21 01:43:39;;;;;;;30.87;9.10;;;;;;;1.14;64.63;100229.38;6012483;23;20478;-90
2022/12/21 01:46:09;;;;;;;27.77;8.63;;;;;;;1.11;64.47;100219.03;6012037;23;20181;-89
2022/12/21 01:48:43;;;;;;;30.43;12.57;;;;;;;1.00;64.64;100218.16;6012208;23;20376;-89
2022/12/21 01:51:10;;;;;;;15.57;7.67;;;;;;;1.01;64.26;100212.13;5987598;23;20388;-89
2022/12/21 01:53:41;;;;;;;17.97;6.07;;;;;;;1.05;64.70;100213.84;6012122;23;20161;-89
2022/12/21 01:56:10;;;;;;;17.23;8.40;;;;;;;1.05;64.76;100213.84;6012133;23;20365;-89
2022/12/21 01:58:38;;;;;;;9.97;5.97;;;;;;;1.04;64.72;100213.03;6012068;23;20457;-89
2022/12/21 02:01:05;;;;;;;20.40;6.03;;;;;;;1.07;64.28;100200.13;6012364;23;20376;-90
2022/12/21 02:03:35;;;;;;;17.90;7.87;;;;;;;1.09;64.35;100194.94;6012011;23;20383;-89
2022/12/21 02:06:07;;;;;;;20.33;7.53;;;;;;;1.15;64.31;100200.13;6011852;23;20429;-89
2022/12/21 02:08:32;;;;;;;13.50;7.23;;;;;;;1.09;64.30;100197.53;6012331;23;20445;-89
2022/12/21 02:10:59;;;;;;;12.50;6.03;;;;;;;1.07;64.58;100194.09;6012186;23;20766;-90
2022/12/21 02:13:24;;;;;;;16.70;6.73;;;;;;;1.17;64.84;100188.09;5987714;23;20157;-89
2022/12/21 02:15:59;;;;;;;12.50;7.17;;;;;;;1.21;64.12;100182.06;6011863;23;20374;-90
2022/12/21 02:18:52;;;;;;;19.13;7.50;;;;;;;1.30;63.90;100171.75;5987312;23;20231;-89
2022/12/21 02:21:29;;;;;;;13.97;6.07;;;;;;;1.28;64.05;100183.81;6012173;23;20356;-89
2022/12/21 02:24:12;;;;;;;15.57;7.20;;;;;;;1.34;64.51;100178.63;6011727;23;20383;-90
2022/12/21 02:26:59;;;;;;;16.00;6.63;;;;;;;1.33;64.54;100182.09;6011952;23;20418;-89
2022/12/21 02:29:48;;;;;;;11.13;6.10;;;;;;;1.18;63.63;100179.47;6012384;23;20363;-90
2022/12/21 02:32:28;;;;;;;15.87;6.13;;;;;;;1.13;64.55;100168.25;6012025;23;20691;-89
2022/12/21 02:35:26;;;;;;;15.57;6.43;;;;;;;1.23;64.00;100167.44;6012013;23;20359;-89
2022/12/21 02:38:17;;;;;;;12.93;6.33;;;;;;;1.29;64.52;100162.25;5984232;23;20385;-90
2022/12/21 02:41:06;;;;;;;8.97;4.57;;;;;;;1.34;64.25;100168.28;6012019;23;20382;-89
2022/12/21 02:46:41;;;;;;;14.17;6.20;;;;;;;1.21;64.97;100159.69;6011624;23;20527;-90
2022/12/21 02:49:15;;;;;;;11.93;5.53;;;;;;;1.13;65.20;100160.53;5987021;23;20512;-90
2022/12/21 02:51:49;;;;;;;8.97;5.00;;;;;;;1.05;65.23;100163.09;6011957;23;20576;-89
2022/12/21 02:54:16;;;;;;;16.17;5.47;;;;;;;0.89;65.81;100165.66;6011916;23;20406;-89
2022/12/21 02:56:41;;;;;;;16.87;6.13;;;;;;;0.87;66.37;100160.47;6011606;23;20384;-90
2022/12/21 02:59:10;;;;;;;10.90;5.13;;;;;;;1.08;65.90;100164.81;6011485;23;20382;-90
2022/12/21 03:01:58;;;;;;;11.83;6.03;;;;;;;1.17;65.32;100162.25;6011768;23;20157;-90
2022/12/21 03:04:56;;;;;;;12.67;4.43;;;;;;;1.20;65.38;100164.84;6011517;23;20428;-91
2022/12/21 03:07:30;;;;;;;12.90;4.00;;;;;;;1.17;65.67;100164.84;6011345;23;20415;-90
2022/12/21 03:10:04;;;;;;;12.70;4.40;;;;;;;1.08;65.85;100159.66;6012019;23;20201;-90
2022/12/21 03:12:54;;;;;;;19.30;6.33;;;;;;;1.11;66.01;100164.81;5986765;23;20381;-89
2022/12/21 03:15:49;;;;;;;8.93;4.00;;;;;;;1.11;66.19;100163.09;6011339;23;20416;-90
2022/12/21 03:18:20;;;;;;;15.47;5.67;;;;;;;0.98;66.91;100153.63;6011619;23;20368;-90
2022/12/21 03:20:59;;;;;;;9.90;5.10;;;;;;;0.86;66.63;100155.31;6011341;23;20390;-89
2022/12/21 03:23:33;;;;;;;8.03;3.60;;;;;;;0.97;66.98;100153.63;5986624;23;20167;-89
2022/12/21 03:26:18;;;;;;;8.63;3.53;;;;;;;0.94;66.97;100148.47;6011575;23;20177;-90
2022/12/21 03:28:46;;;;;;;6.63;2.80;;;;;;;0.95;67.34;100148.44;6011547;23;20426;-90
2022/12/21 03:31:16;;;;;;;8.57;4.13;;;;;;;1.09;67.48;100153.63;6011817;23;20522;-89
2022/12/21 03:33:49;;;;;;;6.43;3.60;;;;;;;1.13;67.33;100151.06;6011164;23;20382;-90
2022/12/21 03:36:28;;;;;;;6.93;3.47;;;;;;;1.12;66.78;100156.22;6011141;23;20372;-90
2022/12/21 03:38:59;;;;;;;8.70;3.63;;;;;;;1.08;66.55;100155.34;5986175;23;20671;-90
2022/12/21 03:41:38;;;;;;;6.27;3.10;;;;;;;0.97;67.33;100143.31;6011191;23;20491;-90
2022/12/21 03:44:07;;;;;;;6.77;3.33;;;;;;;1.10;67.17;100150.22;6011445;23;20378;-89
2022/12/21 03:46:43;;;;;;;7.70;3.13;;;;;;;1.13;66.56;100151.06;6010985;23;20437;-90
2022/12/21 03:49:18;;;;;;;9.17;2.97;;;;;;;1.16;66.21;100152.78;6011343;23;20371;-89
2022/12/21 03:51:52;;;;;;;6.80;3.40;;;;;;;1.17;65.93;100151.94;5986433;23;20384;-90
2022/12/21 03:54:30;;;;;;;10.73;4.53;;;;;;;1.09;65.46;100146.75;6011382;23;20408;-89
2022/12/21 03:56:57;;;;;;;12.93;4.77;;;;;;;1.00;65.47;100140.69;6011001;23;20393;-89
2022/12/21 03:59:24;;;;;;;16.60;6.83;;;;;;;1.01;65.34;100140.72;6010990;23;20412;-90
2022/12/21 04:01:59;;;;;;;12.97;6.43;;;;;;;0.99;64.55;100146.75;6010989;23;20379;-89
2022/12/21 04:04:42;;;;;;;19.43;8.27;;;;;;;0.95;64.44;100143.28;5986292;23;20736;-90
2022/12/21 04:07:09;;;;;;;16.53;7.77;;;;;;;0.95;64.12;100145.00;6010814;23;20418;-89
2022/12/21 04:09:37;;;;;;;21.10;8.27;;;;;;;0.93;63.86;100146.72;6011230;23;20381;-89
2022/12/21 04:14:48;;;;;;;20.20;7.03;;;;;;;0.89;63.46;100145.00;6010950;23;20370;-89
2022/12/21 04:17:13;;;;;;;17.60;7.13;;;;;;;0.86;63.44;100143.28;6010873;23;20382;-89
2022/12/21 04:28:09;;;;;;;19.43;10.00;;;;;;;0.68;63.21;100127.75;6011459;23;20469;-90
2022/12/21 04:30:40;;;;;;;19.30;8.03;;;;;;;0.55;63.29;100132.00;6011084;23;20378;-89
2022/12/21 04:33:07;;;;;;;20.37;8.10;;;;;;;0.49;63.62;100132.00;6011121;23;20383;-89
2022/12/21 04:35:33;;;;;;;21.67;6.30;;;;;;;0.47;63.91;100131.09;6010807;23;20405;-89
2022/12/21 04:37:58;;;;;;;13.70;5.93;;;;;;;0.43;64.31;100123.34;6010714;23;20394;-89
2022/12/21 04:40:24;;;;;;;18.23;6.07;;;;;;;0.43;64.22;100131.09;6009584;23;20730;-89
2022/12/21 04:42:50;;;;;;;15.17;6.53;;;;;;;0.48;64.67;100129.38;6010788;23;20215;-89
2022/12/21 04:45:15;;;;;;;11.50;5.27;;;;;;;0.49;64.76;100123.38;6010577;23;20382;-89
2022/12/21 04:47:41;;;;;;;15.23;5.13;;;;;;;0.59;64.84;100126.00;6010740;23;20293;-89
2022/12/21 04:50:07;;;;;;;12.37;5.40;;;;;;;0.65;64.60;100127.75;6010962;23;20186;-89
2022/12/21 04:52:33;;;;;;;9.60;5.27;;;;;;;0.60;64.68;100122.53;6011731;23;20164;-89
2022/12/21 04:54:58;;;;;;;7.17;4.03;;;;;;;0.51;64.98;100126.81;6012603;23;20456;-89
2022/12/21 04:57:24;;;;;;;16.57;4.87;;;;;;;0.56;65.54;100125.13;6012626;23;20160;-90
2022/12/21 04:59:49;;;;;;;9.83;5.70;;;;;;;0.59;65.36;100118.25;6012526;23;20153;-89
2022/12/21 05:02:15;;;;;;;9.10;4.93;;;;;;;0.56;65.22;100114.81;6012524;23;20159;-89
2022/12/21 05:04:40;;;;;;;12.67;4.67;;;;;;;0.59;65.67;100118.25;6012540;23;20251;-90
2022/12/21 05:07:06;;;;;;;18.47;7.67;;;;;;;0.66;65.39;100120.84;6013039;23;20174;-89
2022/12/21 05:09:31;;;;;;;17.47;6.67;;;;;;;0.69;65.05;100118.28;6012829;23;20218;-90
2022/12/21 05:11:57;;;;;;;15.07;6.20;;;;;;;0.60;64.85;100122.53;6012841;23;20476;-90
2022/12/21 05:14:22;;;;;;;28.30;11.53;;;;;;;0.59;64.99;100113.09;6011320;23;20260;-90
2022/12/21 05:16:48;;;;;;;28.23;12.07;;;;;;;0.61;64.50;100111.38;6012432;23;20232;-89
2022/12/21 05:19:14;;;;;;;23.47;11.53;;;;;;;0.60;64.47;100112.22;6012405;23;20507;-89
2022/12/21 05:21:40;;;;;;;15.13;7.37;;;;;;;0.72;63.91;100105.38;6012804;23;20243;-89
2022/12/21 05:24:05;;;;;;;22.43;8.40;;;;;;;0.74;63.88;100108.81;6012681;23;20624;-89
2022/12/21 05:26:31;;;;;;;12.43;7.10;;;;;;;0.61;63.78;100098.47;6012547;23;20635;-89
2022/12/21 05:28:56;;;;;;;15.00;5.60;;;;;;;0.44;64.40;100100.16;5987643;23;20158;-89
2022/12/21 05:31:22;;;;;;;17.77;7.20;;;;;;;0.50;64.66;100105.31;6012311;23;20160;-89
2022/12/21 05:33:48;;;;;;;10.27;4.93;;;;;;;0.65;64.15;100098.50;5987631;23;20236;-89
2022/12/21 05:36:15;;;;;;;13.60;6.43;;;;;;;0.64;64.56;100089.88;6012594;23;20173;-89
2022/12/21 05:38:41;;;;;;;37.60;14.20;;;;;;;0.61;64.89;100093.31;6012028;23;20233;-90
2022/12/21 05:41:07;;;;;;;28.73;10.27;;;;;;;0.63;65.99;100091.59;6012184;23;20410;-89
2022/12/21 05:43:32;;;;;;;12.70;5.20;;;;;;;0.67;65.54;100091.63;5987765;23;20251;-90
2022/12/21 05:46:03;;;;;;;16.00;6.03;;;;;;;0.69;65.44;100093.34;6011217;23;20347;-89
2022/12/21 05:48:29;;;;;;;20.27;7.23;;;;;;;0.71;65.56;100088.19;6010817;23;20488;-89
2022/12/21 05:50:54;;;;;;;17.37;6.47;;;;;;;0.74;65.59;100089.03;6012145;23;20830;-90
2022/12/21 05:53:20;;;;;;;29.20;8.90;;;;;;;0.75;65.33;100089.91;6012397;23;20410;-89
2022/12/21 05:55:46;;;;;;;21.07;8.20;;;;;;;0.80;65.14;100088.19;6012719;23;20156;-89
2022/12/21 05:58:12;;;;;;;22.77;8.43;;;;;;;0.81;65.49;100084.78;6012026;23;20152;-89
2022/12/21 06:00:38;;;;;;;19.30;7.83;;;;;;;0.81;65.26;100082.19;6012516;23;20392;-89
2022/12/21 06:03:04;;;;;;;14.73;6.43;;;;;;;0.73;65.55;100074.44;6011883;23;20191;-89
2022/12/21 06:05:30;;;;;;;9.63;4.10;;;;;;;0.78;65.53;100075.31;5987590;23;20398;-89
2022/12/21 06:07:56;;;;;;;24.73;10.70;;;;;;;0.88;65.72;100073.59;6012122;23;20425;-89
2022/12/21 06:10:22;;;;;;;24.97;8.60;;;;;;;0.92;65.50;100080.47;5987341;23;20433;-89
2022/12/21 06:12:47;;;;;;;16.63;6.70;;;;;;;0.88;65.67;100073.59;6010773;23;20164;-89
2022/12/21 06:15:13;;;;;;;9.67;4.50;;;;;;;0.94;65.26;100076.19;6011922;23;20482;-89
2022/12/21 06:17:39;;;;;;;17.17;7.10;;;;;;;0.99;65.25;100077.06;6011822;23;20479;-89
2022/12/21 06:20:05;;;;;;;22.20;8.87;;;;;;;1.03;65.25;100076.19;6012127;23;20153;-89
2022/12/21 06:22:33;;;;;;;14.50;7.27;;;;;;;1.10;65.27;100071.00;6012166;23;20425;-89
2022/12/21 06:24:58;;;;;;;13.47;7.17;;;;;;;1.09;65.53;100071.03;6011838;23;20522;-89
2022/12/21 06:27:24;;;;;;;18.47;7.03;;;;;;;1.09;65.96;100065.88;6011656;23;20438;-90
2022/12/21 06:29:49;;;;;;;11.97;5.77;;;;;;;1.15;65.90;100073.63;6012318;23;20229;-90
2022/12/21 06:32:15;;;;;;;15.00;7.27;;;;;;;1.18;65.74;100065.84;6011614;23;20334;-89
2022/12/21 06:34:40;;;;;;;16.20;7.60;;;;;;;1.38;66.50;100071.03;6012047;23;20151;-90
2022/12/21 06:37:06;;;;;;;14.00;5.00;;;;;;;1.80;67.58;100068.38;6011741;23;20154;-90
2022/12/21 06:39:32;;;;;;;8.17;3.93;;;;;;;2.63;68.38;100064.56;6012256;23;20153;-90
2022/12/21 06:41:57;;;;;;;6.00;3.80;;;;;;;3.62;67.09;100061.16;6011617;23;20454;-90
2022/12/21 06:44:22;;;;;;;9.07;3.77;;;;;;;4.47;62.98;100046.34;6011662;23;20161;-90
2022/12/21 06:46:48;;;;;;;10.37;3.80;;;;;;;5.20;59.69;100041.75;6011673;23;20214;-90
2022/12/21 06:49:14;;;;;;;8.03;4.07;;;;;;;5.48;56.73;100036.94;5986988;23;20159;-90
2022/12/21 06:51:39;;;;;;;11.87;3.33;;;;;;;5.34;56.18;100034.59;6011625;23;20150;-89
2022/12/21 06:54:06;;;;;;;11.83;4.63;;;;;;;5.16;56.09;100034.91;6011588;23;20154;-90
2022/12/21 06:56:31;;;;;;;13.93;4.40;;;;;;;5.00;55.99;100032.56;5987095;23;20452;-89
2022/12/21 06:58:57;;;;;;;8.53;2.80;;;;;;;4.99;56.38;100029.09;6011771;23;20230;-90
2022/12/21 07:01:29;;;;;;;7.17;2.90;;;;;;;5.08;55.88;100031.56;6012222;23;20151;-90
2022/12/21 07:03:55;;;;;;;4.40;2.47;;;;;;;5.14;56.26;100034.06;5986938;23;20241;-90
2022/12/21 07:06:22;;;;;;;9.00;3.17;;;;;;;5.23;56.44;100028.72;6012150;23;20205;-91
2022/12/21 07:08:48;;;;;;;8.10;3.53;;;;;;;5.34;56.67;100023.34;5987218;23;20188;-90
2022/12/21 07:11:20;;;;;;;9.80;4.03;;;;;;;5.37;56.11;100028.50;5986816;23;20647;-92
2022/12/21 07:13:47;;;;;;;9.43;3.47;;;;;;;5.30;55.82;100019.06;6011471;23;20147;-90
2022/12/21 07:16:14;;;;;;;13.40;6.47;;;;;;;5.22;55.33;100021.78;6011331;23;20214;-90
2022/12/21 07:18:40;;;;;;;13.73;7.13;;;;;;;5.10;55.78;100022.00;6011318;23;20154;-90
2022/12/21 07:21:10;;;;;;;14.53;7.40;;;;;;;4.95;56.44;100022.25;6011330;23;20225;-90
2022/12/21 07:23:37;;;;;;;17.10;7.77;;;;;;;4.82;57.12;100021.56;6011369;23;20225;-90
2022/12/21 07:26:12;;;;;;;19.73;8.10;;;;;;;4.63;57.83;100022.75;6011155;23;20509;-91
2022/12/21 07:28:38;;;;;;;11.77;5.50;;;;;;;4.50;58.86;100025.53;5988084;23;20159;-91
2022/12/21 07:31:08;;;;;;;12.03;5.67;;;;;;;4.47;60.04;100030.75;5986948;23;20575;-91
2022/12/21 07:33:34;;;;;;;11.67;3.73;;;;;;;4.42;59.94;100032.56;5987119;23;20159;-91
2022/12/21 07:36:01;;;;;;;6.33;2.80;;;;;;;4.38;60.67;100023.94;6010073;23;20155;-91
2022/12/21 07:38:28;;;;;;;7.03;2.63;;;;;;;4.23;61.28;100024.16;5987004;23;20190;-91
2022/12/21 07:41:03;;;;;;;6.43;3.07;;;;;;;4.19;61.87;100020.72;5986867;23;20167;-92
2022/12/21 07:43:30;;;;;;;7.97;3.50;;;;;;;4.28;62.95;100018.03;6011974;23;20192;-92
2022/12/21 07:46:05;;;;;;;;;;;;;;;;;;;;;
2022/12/21 07:49:07;;;;;;;;;;;;;;;;;;;;;
2022/12/21 07:52:03;;;;;;;8.23;3.80;;;;;;;4.42;64.39;100011.78;6011834;23;20237;-92
2022/12/21 07:54:54;;;;;;;11.87;5.43;;;;;;;4.49;65.05;100016.88;5988061;23;20150;-92
2022/12/21 07:57:49;;;;;;;;;;;;;;;;;;;;;
2022/12/21 08:00:37;;;;;;;;;;;;;;;;;;;;;
2022/12/21 08:03:41;;;;;;;11.93;4.00;;;;;;;4.90;64.69;100008.50;6012534;23;20188;-93
2022/12/21 08:06:17;;;;;;;11.57;4.20;;;;;;;4.92;64.89;100010.19;5987228;23;20248;-94
2022/12/21 08:08:42;;;;;;;7.63;4.47;;;;;;;4.94;64.80;100002.34;5987954;23;20174;-94
2022/12/21 08:11:14;;;;;;;12.50;5.00;;;;;;;5.09;64.78;100001.22;5987226;23;20167;-93
2022/12/21 08:13:41;;;;;;;16.23;5.73;;;;;;;5.14;65.00;100000.28;5986778;23;20199;-93
2022/12/21 08:16:09;;;;;;;14.27;4.97;;;;;;;5.37;65.28;99999.91;5986862;23;20230;-92
2022/12/21 08:18:34;;;;;;;7.97;4.27;;;;;;;5.48;65.42;99996.19;5986376;23;20165;-92
2022/12/21 08:21:00;;;;;;;11.33;5.83;;;;;;;5.51;64.64;100006.53;5986600;23;20157;-91
2022/12/21 08:23:25;;;;;;;15.30;5.20;;;;;;;5.54;64.48;100001.28;6011025;23;20185;-92
2022/12/21 08:25:51;;;;;;;24.93;5.47;;;;;;;5.64;64.92;99998.50;5986501;23;20693;-92
2022/12/21 08:28:17;;;;;;;10.67;4.57;;;;;;;5.70;64.04;99995.78;5986480;23;20483;-92
2022/12/21 08:30:42;;;;;;;11.50;5.93;;;;;;;5.81;63.76;99996.44;6009935;23;20165;-92
2022/12/21 08:33:09;;;;;;;13.73;5.57;;;;;;;6.07;63.95;99984.66;6010872;23;20155;-92
2022/12/21 08:35:35;;;;;;;10.67;4.60;;;;;;;6.29;63.55;99992.03;6009995;23;20482;-92
2022/12/21 08:38:00;;;;;;;11.10;4.57;;;;;;;6.48;62.78;99986.34;6011018;23;20157;-92
2022/12/21 08:40:25;;;;;;;16.17;4.73;;;;;;;6.64;62.21;99981.66;6011721;23;20680;-92
2022/12/21 08:42:51;;;;;;;9.47;3.97;;;;;;;6.77;61.65;99978.72;5986612;23;20158;-92
2022/12/21 08:45:16;;;;;;;10.10;4.40;;;;;;;6.93;60.51;99970.53;6009828;23;20158;-92
2022/12/21 08:47:42;;;;;;;7.80;3.33;;;;;;;6.84;58.87;99969.00;5986410;23;20514;-93
2022/12/21 08:50:08;;;;;;;15.53;4.07;;;;;;;7.00;59.33;99970.34;5986671;23;20190;-92
2022/12/21 08:52:33;;;;;;;13.83;3.97;;;;;;;7.20;57.81;99977.69;5986490;23;20551;-93
2022/12/21 08:54:58;;;;;;;12.83;4.93;;;;;;;7.30;56.86;99960.91;5987616;23;20159;-93
2022/12/21 08:57:24;;;;;;;13.00;4.13;;;;;;;7.37;55.71;99955.47;5986650;23;20599;-92
2022/12/21 08:59:50;;;;;;;7.27;3.40;;;;;;;7.52;55.77;99967.25;5986640;23;20162;-93
2022/12/21 09:02:15;;;;;;;12.57;5.23;;;;;;;7.64;55.97;99947.78;6010051;23;20552;-94
2022/12/21 09:04:41;;;;;;;10.60;4.30;;;;;;;7.78;55.37;99949.09;5986520;23;20181;-93
2022/12/21 09:07:07;;;;;;;11.47;4.83;;;;;;;7.80;54.38;99955.16;5986591;23;20226;-93
2022/12/21 09:09:33;;;;;;;11.30;4.90;;;;;;;7.75;54.38;99951.84;6011412;23;20234;-93
2022/12/21 09:11:59;;;;;;;8.23;4.00;;;;;;;7.83;52.83;99941.16;5987038;23;20154;-93
2022/12/21 09:14:25;;;;;;;15.10;5.67;;;;;;;7.72;54.39;99945.84;5986630;23;20159;-93
2022/12/21 09:16:51;;;;;;;12.23;4.07;;;;;;;7.75;54.33;99941.41;5986396;23;20215;-92
2022/12/21 09:19:17;;;;;;;15.50;4.83;;;;;;;7.88;52.55;99926.22;5986527;23;20217;-93
2022/12/21 09:21:42;;;;;;;10.23;4.13;;;;;;;7.92;52.19;99928.69;5986583;23;20230;-92
2022/12/21 09:24:08;;;;;;;9.07;4.10;;;;;;;8.05;53.34;99922.22;5986814;23;20159;-92
2022/12/21 09:26:33;;;;;;;11.80;4.73;;;;;;;8.21;51.11;99919.13;5986438;23;20253;-92
2022/12/21 09:28:59;;;;;;;12.27;5.00;;;;;;;8.20;52.21;99915.66;5986598;23;20547;-92
2022/12/21 09:31:24;;;;;;;11.93;4.63;;;;;;;8.35;52.23;99910.03;5986741;23;20592;-92
2022/12/21 09:33:50;;;;;;;12.57;5.97;;;;;;;8.33;51.86;99901.34;5986493;23;20229;-92
2022/12/21 09:36:16;;;;;;;9.57;4.93;;;;;;;8.49;52.47;99892.13;5987271;23;20234;-93
2022/12/21 09:38:42;;;;;;;10.73;5.27;;;;;;;8.64;51.27;99886.44;5988264;23;20160;-94
2022/12/21 09:41:08;;;;;;;11.10;5.00;;;;;;;8.77;50.93;99889.50;5988228;23;20171;-93
2022/12/21 09:44:19;;;;;;;9.50;4.67;;;;;;;8.91;51.46;99871.56;5988248;23;20573;-93
2022/12/21 09:46:48;;;;;;;13.10;4.47;;;;;;;9.02;50.17;99861.59;5955093;24;20198;-92
2022/12/21 09:49:20;;;;;;;13.53;5.57;;;;;;;9.14;50.51;99855.09;6005316;23;20561;-92
2022/12/21 09:51:57;;;;;;;20.73;9.43;;;;;;;9.16;49.93;99854.13;5987923;23;20160;-92
2022/12/21 09:54:38;;;;;;;23.03;9.10;;;;;;;9.18;50.05;99851.44;6012814;23;20251;-92
2022/12/21 09:57:06;;;;;;;21.90;10.57;;;;;;;9.17;48.96;99841.91;5988121;23;20146;-92
2022/12/21 09:59:31;;;;;;;25.87;9.03;;;;;;;9.30;49.17;99844.94;5988016;23;20162;-92
2022/12/21 10:02:04;;;;;;;16.93;8.07;;;;;;;9.28;49.54;99840.59;5988301;23;20169;-92
2022/12/21 10:04:50;;;;;;;31.83;9.50;;;;;;;9.33;48.25;99826.53;5987826;23;20186;-92
2022/12/21 10:07:27;;;;;;;22.63;8.07;;;;;;;9.48;49.40;99828.56;5987984;23;20186;-94
2022/12/21 10:10:12;;;;;;;19.70;6.83;;;;;;;9.64;49.05;99820.06;5987911;23;20168;-92
2022/12/21 10:12:47;;;;;;;13.50;5.87;;;;;;;9.64;48.62;99824.47;5988785;23;20233;-92
2022/12/21 10:15:27;;;;;;;12.83;6.33;;;;;;;9.81;48.71;99822.91;5989276;23;20162;-92
2022/12/21 10:18:15;;;;;;;10.73;4.73;;;;;;;9.97;48.02;99814.44;5988807;23;20518;-93
2022/12/21 10:21:02;;;;;;;15.50;6.57;;;;;;;10.04;48.14;99816.78;5987854;23;20230;-93
2022/12/21 10:23:32;;;;;;;17.63;5.70;;;;;;;10.15;47.95;99803.28;5988277;23;20162;-92
2022/12/21 10:26:00;;;;;;;21.87;5.53;;;;;;;10.32;47.46;99801.69;5987651;23;20178;-92
2022/12/21 10:28:43;;;;;;;15.27;6.07;;;;;;;10.41;46.88;99798.69;6010980;23;20397;-91
2022/12/21 10:31:12;;;;;;;14.57;5.60;;;;;;;10.02;47.97;99792.41;6012765;23;20135;-92
2022/12/21 10:33:40;;;;;;;23.70;5.77;;;;;;;10.24;48.33;99793.31;5987641;23;20229;-92
2022/12/21 10:36:15;;;;;;;10.17;5.00;;;;;;;10.19;47.58;99797.88;5987741;23;20177;-92
2022/12/21 10:38:40;;;;;;;10.83;5.10;;;;;;;10.39;48.05;99792.66;6013109;23;20138;-92
2022/12/21 10:41:16;;;;;;;15.63;4.07;;;;;;;10.39;47.01;99787.41;6012520;23;20178;-92
2022/12/21 10:43:49;;;;;;;8.93;2.93;;;;;;;10.44;46.27;99793.31;6011053;23;20154;-92
2022/12/21 10:46:20;;;;;;;6.13;2.43;;;;;;;10.55;47.26;99794.63;5987343;23;20186;-92
2022/12/21 10:48:48;;;;;;;5.40;1.70;;;;;;;10.80;46.69;99787.41;5987678;23;20163;-92
2022/12/21 10:51:20;;;;;;;5.07;2.23;;;;;;;10.84;46.23;99786.38;5987523;23;20671;-91
2022/12/21 10:54:05;;;;;;;3.77;1.90;;;;;;;11.04;46.38;99781.97;6012385;23;20143;-92
2022/12/21 10:56:40;;;;;;;6.33;2.20;;;;;;;11.38;45.72;99773.44;5987319;23;20147;-91
2022/12/21 10:59:13;;;;;;;5.83;2.47;;;;;;;11.62;44.86;99763.56;5987584;23;20241;-92
2022/12/21 11:01:39;;;;;;;6.67;2.27;;;;;;;11.84;44.50;99766.94;6012193;23;20159;-92
2022/12/21 11:04:26;;;;;;;7.23;3.30;;;;;;;11.78;44.05;99755.84;5988333;23;20162;-92
2022/12/21 11:07:21;;;;;;;5.97;2.70;;;;;;;11.35;45.93;99768.31;6012139;23;20171;-92
2022/12/21 11:09:58;;;;;;;5.30;2.53;;;;;;;11.65;45.37;99755.56;5987419;23;20170;-93
2022/12/21 11:12:25;;;;;;;10.83;3.87;;;;;;;11.63;44.17;99753.00;6012010;23;20143;-92
2022/12/21 11:14:52;;;;;;;6.33;3.00;;;;;;;11.61;44.87;99749.59;6012437;23;20163;-91
2022/12/21 11:17:27;;;;;;;4.90;2.47;;;;;;;11.79;44.67;99752.31;6012319;23;20182;-92
2022/12/21 11:20:08;;;;;;;8.67;2.87;;;;;;;11.89;44.44;99753.56;6012541;23;20167;-91
2022/12/21 11:22:37;;;;;;;5.80;2.53;;;;;;;11.96;44.14;99744.47;5987208;23;20172;-91
2022/12/21 11:25:04;;;;;;;6.97;2.80;;;;;;;12.07;44.70;99743.03;5987063;23;20160;-92
2022/12/21 11:27:32;;;;;;;5.77;2.73;;;;;;;12.31;43.64;99741.81;5987078;23;20188;-91
2022/12/21 11:30:01;;;;;;;5.07;2.27;;;;;;;12.04;42.45;99745.81;5987098;23;20189;-91
2022/12/21 11:32:29;;;;;;;8.60;2.60;;;;;;;12.01;43.89;99738.06;6010168;23;20214;-90
2022/12/21 11:34:56;;;;;;;7.73;2.60;;;;;;;12.31;43.37;99740.97;5986735;23;20199;-91
2022/12/21 11:37:37;;;;;;;5.30;2.70;;;;;;;12.54;43.13;99730.13;5987245;23;20160;-90
2022/12/21 11:40:11;;;;;;;9.80;2.73;;;;;;;12.56;43.04;99733.53;5986865;23;20160;-92
2022/12/21 11:43:00;;;;;;;6.50;2.23;;;;;;;12.46;43.40;99729.69;6011451;23;20157;-91
2022/12/21 11:45:52;;;;;;;7.03;3.03;;;;;;;12.44;43.26;99721.03;5986805;23;20154;-90
2022/12/21 11:48:27;;;;;;;5.17;2.90;;;;;;;12.53;42.31;99720.53;6011766;23;20149;-91
2022/12/21 11:51:40;;;;;;;6.70;2.73;;;;;;;12.77;42.42;99707.91;6011901;23;20561;-91
2022/12/21 11:54:22;;;;;;;5.90;2.63;;;;;;;12.84;42.06;99699.59;5981492;23;20605;-91
2022/12/21 11:56:57;;;;;;;4.23;1.90;;;;;;;12.83;42.69;99705.81;5986575;23;20168;-90
2022/12/21 11:59:50;;;;;;;6.10;2.23;;;;;;;12.77;42.55;99692.97;6011783;23;20145;-91
2022/12/21 12:02:29;;;;;;;8.23;2.60;;;;;;;12.98;42.13;99700.66;5987186;23;20197;-91
2022/12/21 12:05:26;;;;;;;6.53;2.40;;;;;;;12.90;41.50;99701.06;5986549;23;20197;-91